Holborn, United Kingdom
Current Conditions -  °F | °C
As of 11:50 PM on Monday 22 Dec 2014 (Local Time) from EGLC Reporting Station
Broken Clouds Broken Clouds  
Wind Chill: 12°   Ceiling: 2400
Heat Index: 12°   Visibility: 6mi
Dew Point:   Wind: 17mph
Humidity: 72%   Direction: 250°WSW
Pressure: 30.06"   Gusts: NA
Location:  51.52°N, 0.11°W
Report Text: EGLC 222350Z AUTO 25015KT 9999 BKN024/// BKN030/// 12/07 Q1018
Loading
Personal Weather Stations






























Interactive Weather Map New forecast layout! Learn more

10-Day Weather Forecast

Advertisements
Track Severe Weather on mobile